Time;durP1;ratioP1;P1;durP2;ratioP2;P2;SDS_P1;SDS_P2;PMS_P1;PMS_P2;Temp;Humidity;BMP_temperature;BMP_pressure;BME280_temperature;BME280_humidity;BME280_pressure;Samples;Min_cycle;Max_cycle;Signal;HPM_P1;HPM_P2
2022/01/05 00:01:22;;;;;;;0.45;0.20;;;9.20;75.60;;;;;;2375985;52;21331;-74
2022/01/05 00:03:49;;;;;;;0.77;0.32;;;9.20;75.60;;;;;;2345538;54;20944;-74
2022/01/05 00:06:15;;;;;;;0.80;0.43;;;9.20;75.60;;;;;;2394519;53;20998;-74
2022/01/05 00:08:42;;;;;;;1.08;0.43;;;9.20;75.60;;;;;;2360855;54;21885;-75
2022/01/05 00:11:10;;;;;;;1.00;0.47;;;9.30;75.70;;;;;;2404120;53;20966;-74
2022/01/05 00:13:37;;;;;;;0.88;0.40;;;9.20;75.60;;;;;;2364053;54;21033;-74
2022/01/05 00:16:04;;;;;;;0.85;0.40;;;9.30;75.70;;;;;;2340669;54;21747;-74
2022/01/05 00:18:31;;;;;;;0.80;0.43;;;9.30;75.60;;;;;;2365196;54;21009;-75
2022/01/05 00:20:59;;;;;;;0.30;0.20;;;9.30;75.60;;;;;;2338053;54;21003;-75
2022/01/05 00:23:26;;;;;;;0.90;0.40;;;9.30;75.60;;;;;;2350116;54;21020;-75
2022/01/05 00:25:52;;;;;;;0.90;0.40;;;9.30;75.60;;;;;;2479595;53;20974;-75
2022/01/05 00:28:19;;;;;;;1.30;0.50;;;9.40;75.50;;;;;;2413661;53;20950;-74
2022/01/05 00:30:47;;;;;;;1.17;0.50;;;9.40;75.50;;;;;;2616675;52;21660;-75
2022/01/05 00:33:15;;;;;;;1.42;0.50;;;9.40;75.40;;;;;;2593550;52;21648;-75
2022/01/05 00:35:42;;;;;;;1.10;0.55;;;9.40;75.20;;;;;;2357392;54;20944;-74
2022/01/05 00:38:08;;;;;;;1.08;0.50;;;9.30;75.00;;;;;;2342910;54;20951;-75
2022/01/05 00:40:34;;;;;;;1.08;0.55;;;9.40;74.90;;;;;;2351463;54;20925;-74
2022/01/05 00:43:01;;;;;;;0.88;0.43;;;9.30;74.80;;;;;;2420736;53;20970;-75
2022/01/05 00:45:27;;;;;;;1.08;0.50;;;9.30;74.80;;;;;;2390113;52;22055;-75
2022/01/05 00:47:53;;;;;;;1.60;0.50;;;9.30;74.80;;;;;;2354461;54;21741;-75
2022/01/05 00:50:20;;;;;;;1.10;0.47;;;9.30;74.80;;;;;;2356167;54;21455;-75
2022/01/05 00:52:46;;;;;;;1.05;0.40;;;9.30;74.70;;;;;;2337893;54;20963;-75
2022/01/05 00:55:12;;;;;;;1.10;0.50;;;9.30;74.70;;;;;;2547074;52;20970;-74
2022/01/05 00:57:38;;;;;;;1.08;0.43;;;9.30;74.60;;;;;;2319519;54;21387;-74
2022/01/05 01:00:05;;;;;;;1.48;0.40;;;9.30;74.70;;;;;;2336134;54;20969;-74
2022/01/05 01:02:32;;;;;;;2.47;0.50;;;9.20;74.70;;;;;;2332441;53;21040;-75
2022/01/05 01:04:58;;;;;;;1.00;0.40;;;9.20;74.60;;;;;;2337898;54;20940;-75
2022/01/05 01:07:24;;;;;;;0.88;0.40;;;9.20;74.60;;;;;;2364667;54;20881;-73
2022/01/05 01:09:51;;;;;;;1.95;0.50;;;9.20;74.80;;;;;;2623211;52;20976;-74
2022/01/05 01:12:18;;;;;;;0.95;0.40;;;9.20;74.50;;;;;;2585693;52;21553;-74
2022/01/05 01:14:44;;;;;;;1.58;0.45;;;9.30;74.50;;;;;;2365167;53;20985;-74
2022/01/05 01:17:10;;;;;;;2.62;0.50;;;9.20;74.70;;;;;;2348845;53;20954;-74
2022/01/05 01:19:40;;;;;;;0.88;0.40;;;9.10;74.40;;;;;;2360000;54;20945;-75
2022/01/05 01:22:06;;;;;;;0.73;0.30;;;9.20;74.40;;;;;;2370210;54;20913;-75
2022/01/05 01:24:33;;;;;;;1.40;0.40;;;9.10;74.30;;;;;;2396795;52;20870;-75
2022/01/05 01:26:59;;;;;;;1.48;0.50;;;9.10;74.20;;;;;;2356260;53;20985;-74
2022/01/05 01:29:25;;;;;;;0.75;0.30;;;9.10;73.90;;;;;;2606688;52;20973;-75
2022/01/05 01:31:52;;;;;;;0.80;0.30;;;9.00;74.10;;;;;;2347293;53;20938;-75
2022/01/05 01:34:18;;;;;;;1.40;0.30;;;9.10;74.60;;;;;;2348973;53;21583;-76
2022/01/05 01:36:46;;;;;;;0.75;0.30;;;9.00;74.20;;;;;;2349079;53;20961;-76
2022/01/05 01:39:12;;;;;;;1.08;0.37;;;9.00;74.30;;;;;;2420726;52;20917;-74
2022/01/05 01:41:39;;;;;;;1.30;0.40;;;9.00;74.30;;;;;;2346620;53;20941;-74
2022/01/05 01:44:06;;;;;;;1.08;0.40;;;9.00;74.30;;;;;;2360125;53;21775;-74
2022/01/05 01:46:32;;;;;;;1.12;0.50;;;9.00;74.50;;;;;;2349579;53;20914;-74
2022/01/05 01:48:58;;;;;;;0.73;0.40;;;9.00;74.50;;;;;;2350378;53;21980;-75
2022/01/05 01:51:24;;;;;;;0.75;0.30;;;9.00;74.50;;;;;;2362151;53;20984;-74
2022/01/05 01:53:51;;;;;;;0.62;0.30;;;8.90;74.40;;;;;;2379007;53;20959;-75
2022/01/05 01:56:18;;;;;;;1.98;0.30;;;8.90;74.30;;;;;;2358898;53;20945;-75
2022/01/05 01:58:48;;;;;;;0.98;0.30;;;8.90;74.40;;;;;;2349769;53;20941;-74
2022/01/05 02:01:15;;;;;;;1.17;0.30;;;8.90;74.60;;;;;;2369979;53;20914;-75
2022/01/05 02:03:42;;;;;;;0.80;0.40;;;8.80;74.60;;;;;;2347617;53;21040;-76
2022/01/05 02:06:09;;;;;;;1.65;0.40;;;8.90;74.70;;;;;;2416302;53;20957;-75
2022/01/05 02:08:35;;;;;;;0.65;0.40;;;8.90;74.70;;;;;;2541090;52;20982;-73
2022/01/05 02:11:03;;;;;;;1.37;0.43;;;8.90;74.80;;;;;;2622177;52;20922;-74
2022/01/05 02:13:29;;;;;;;1.30;0.40;;;8.90;74.80;;;;;;2377328;52;20982;-75
2022/01/05 02:15:55;;;;;;;1.45;0.40;;;8.90;74.80;;;;;;2340743;54;20945;-74
2022/01/05 02:21:36;;;;;;;1.20;0.40;;;8.90;74.80;;;;;;2616301;52;21679;-74
2022/01/05 02:24:04;;;;;;;0.62;0.20;;;8.90;74.90;;;;;;2372309;54;21084;-75
2022/01/05 02:26:30;;;;;;;0.47;0.25;;;8.90;75.60;;;;;;2353770;53;20925;-74
2022/01/05 02:28:56;;;;;;;0.52;0.30;;;8.90;74.90;;;;;;2340774;54;21300;-75
2022/01/05 02:31:23;;;;;;;0.50;0.30;;;8.90;75.00;;;;;;2359264;53;20956;-74
2022/01/05 02:33:49;;;;;;;1.05;0.40;;;8.90;75.10;;;;;;2350279;53;21940;-74
2022/01/05 02:36:17;;;;;;;0.70;0.30;;;8.90;75.20;;;;;;2368532;53;20922;-75
2022/01/05 02:38:43;;;;;;;2.00;0.57;;;8.90;75.20;;;;;;2331951;53;1329257;-75
2022/01/05 02:41:10;;;;;;;1.23;0.52;;;8.90;76.30;;;;;;2445162;52;20965;-75
2022/01/05 02:43:37;;;;;;;0.90;0.50;;;8.90;75.70;;;;;;2352759;53;20938;-75
2022/01/05 02:46:22;;;;;;;1.00;0.40;;;8.90;75.60;;;;;;2374754;53;20935;-75
2022/01/05 02:48:50;;;;;;;1.95;0.47;;;9.00;75.20;;;;;;2347262;53;20943;-74
2022/01/05 02:51:16;;;;;;;1.58;0.40;;;9.00;75.20;;;;;;2367644;53;21632;-76
2022/01/05 02:53:43;;;;;;;1.05;0.50;;;9.00;75.20;;;;;;2367656;53;20965;-74
2022/01/05 02:56:10;;;;;;;1.42;0.40;;;9.00;75.10;;;;;;2344514;53;20973;-74
2022/01/05 02:58:36;;;;;;;1.80;0.50;;;9.00;75.10;;;;;;2359725;53;20965;-75
2022/01/05 03:01:02;;;;;;;1.33;0.40;;;9.00;75.00;;;;;;2519348;52;21795;-75
2022/01/05 03:03:29;;;;;;;0.80;0.30;;;9.00;75.00;;;;;;2347903;53;22107;-74
2022/01/05 03:05:55;;;;;;;0.73;0.40;;;9.00;75.10;;;;;;2368864;53;21719;-74
2022/01/05 03:08:21;;;;;;;1.12;0.40;;;9.00;75.80;;;;;;2425253;52;21016;-74
2022/01/05 03:10:48;;;;;;;1.67;0.50;;;9.10;75.10;;;;;;2368330;53;20941;-74
2022/01/05 03:13:14;;;;;;;1.17;0.50;;;9.00;75.00;;;;;;2350221;53;21315;-76
2022/01/05 03:15:41;;;;;;;0.73;0.37;;;9.10;75.10;;;;;;2615896;52;20905;-75
2022/01/05 03:18:07;;;;;;;0.82;0.30;;;9.00;74.90;;;;;;2370592;54;20891;-74
2022/01/05 03:20:36;;;;;;;0.85;0.40;;;9.00;74.90;;;;;;2485718;52;20952;-75
2022/01/05 03:23:05;;;;;;;0.88;0.37;;;9.10;75.00;;;;;;2592234;52;22004;-73
2022/01/05 03:25:33;;;;;;;1.48;0.43;;;9.00;74.90;;;;;;2366417;53;20990;-74
2022/01/05 03:27:59;;;;;;;1.10;0.40;;;9.00;75.00;;;;;;2370214;53;20961;-75
2022/01/05 03:30:27;;;;;;;0.80;0.40;;;9.00;74.90;;;;;;2367702;53;20910;-74
2022/01/05 03:33:09;;;;;;;0.95;0.32;;;9.00;75.00;;;;;;2370196;54;20909;-74
2022/01/05 03:35:38;;;;;;;1.27;0.37;;;9.00;75.00;;;;;;2478738;52;20898;-74
2022/01/05 03:38:04;;;;;;;1.10;0.40;;;9.00;75.00;;;;;;2370174;54;20901;-74
2022/01/05 03:40:30;;;;;;;1.10;0.40;;;9.00;75.10;;;;;;2416662;52;20945;-74
2022/01/05 03:42:57;;;;;;;0.73;0.30;;;9.00;75.20;;;;;;2539183;53;20953;-75
2022/01/05 03:45:23;;;;;;;1.02;0.40;;;9.00;75.30;;;;;;2349821;53;20948;-74
2022/01/05 03:47:49;;;;;;;1.15;0.40;;;9.00;75.30;;;;;;2347876;53;21464;-75
2022/01/05 03:50:15;;;;;;;0.85;0.40;;;9.00;75.20;;;;;;2376104;53;20950;-76
2022/01/05 03:52:44;;;;;;;0.85;0.30;;;9.00;75.10;;;;;;2371431;54;20937;-77
2022/01/05 03:55:11;;;;;;;0.88;0.30;;;9.00;75.10;;;;;;2542997;53;20978;-74
2022/01/05 03:57:38;;;;;;;1.42;0.40;;;9.00;75.00;;;;;;2370437;54;21621;-74
2022/01/05 04:00:06;;;;;;;1.05;0.40;;;9.00;75.00;;;;;;2464886;52;21291;-74
2022/01/05 04:02:33;;;;;;;0.77;0.37;;;9.00;75.00;;;;;;2559433;52;21426;-76
2022/01/05 04:04:59;;;;;;;1.08;0.40;;;8.90;74.90;;;;;;2622088;52;21049;-74
2022/01/05 04:07:25;;;;;;;1.15;0.50;;;8.90;75.00;;;;;;2388850;52;21512;-74
2022/01/05 04:09:51;;;;;;;1.08;0.47;;;8.90;75.00;;;;;;2355909;53;20988;-75
2022/01/05 04:12:18;;;;;;;1.62;0.50;;;8.90;75.00;;;;;;2349140;53;21433;-76
2022/01/05 04:14:44;;;;;;;0.93;0.40;;;8.90;75.00;;;;;;2357185;53;21446;-77
2022/01/05 04:17:11;;;;;;;1.62;0.52;;;8.90;75.10;;;;;;2350020;53;21017;-76
2022/01/05 04:19:37;;;;;;;1.60;0.60;;;8.90;75.20;;;;;;2364755;53;20950;-76
2022/01/05 04:22:04;;;;;;;1.02;0.40;;;8.90;75.20;;;;;;2552663;52;20929;-74
2022/01/05 04:24:30;;;;;;;1.17;0.50;;;8.90;75.30;;;;;;2372255;53;20889;-75
2022/01/05 04:26:58;;;;;;;1.05;0.43;;;8.90;75.40;;;;;;2344498;53;21421;-74
2022/01/05 04:29:24;;;;;;;1.92;0.50;;;8.90;75.30;;;;;;2364657;53;20914;-75
2022/01/05 04:31:51;;;;;;;1.23;0.50;;;8.90;75.30;;;;;;2397501;52;21001;-75
2022/01/05 04:34:18;;;;;;;1.42;0.55;;;8.90;75.30;;;;;;2348324;53;21485;-74
2022/01/05 04:37:14;;;;;;;1.55;0.70;;;8.90;75.10;;;;;;2369847;53;21028;-75
2022/01/05 04:39:42;;;;;;;0.80;0.43;;;8.90;74.80;;;;;;2385928;53;20948;-75
2022/01/05 04:42:08;;;;;;;1.25;0.50;;;8.90;74.40;;;;;;2362343;53;20978;-74
2022/01/05 04:44:35;;;;;;;1.48;0.40;;;8.80;73.60;;;;;;2362047;53;21457;-75
2022/01/05 04:47:01;;;;;;;1.50;0.47;;;8.80;73.20;;;;;;2355872;53;20933;-75
2022/01/05 04:49:27;;;;;;;0.98;0.40;;;8.70;72.60;;;;;;2343342;53;20917;-75
2022/01/05 04:51:54;;;;;;;0.50;0.35;;;8.70;72.40;;;;;;2346676;53;21366;-75
2022/01/05 04:54:20;;;;;;;0.60;0.40;;;8.60;72.20;;;;;;2373765;53;21005;-75
2022/01/05 04:56:47;;;;;;;0.80;0.40;;;8.50;72.10;;;;;;2370064;54;20981;-75
2022/01/05 04:59:13;;;;;;;0.95;0.50;;;8.50;72.00;;;;;;2346816;53;21001;-75
2022/01/05 05:01:40;;;;;;;1.85;0.60;;;8.40;71.90;;;;;;2376597;52;20917;-75
2022/01/05 05:04:06;;;;;;;0.95;0.40;;;8.30;71.90;;;;;;2349609;53;20989;-74
2022/01/05 05:06:33;;;;;;;0.77;0.50;;;8.20;71.80;;;;;;2353499;53;21734;-75
2022/01/05 05:08:59;;;;;;;1.08;0.40;;;8.20;71.90;;;;;;2340452;53;21755;-75
2022/01/05 05:11:25;;;;;;;0.60;0.40;;;8.10;71.80;;;;;;2351599;53;20933;-75
2022/01/05 05:13:51;;;;;;;0.52;0.30;;;8.00;71.80;;;;;;2470833;52;20908;-75
2022/01/05 05:16:19;;;;;;;0.98;0.50;;;8.00;71.90;;;;;;2347968;53;20926;-75
2022/01/05 05:18:45;;;;;;;0.95;0.45;;;7.90;72.10;;;;;;2355780;53;20909;-75
2022/01/05 05:21:11;;;;;;;0.50;0.35;;;7.90;72.30;;;;;;2480165;52;20977;-75
2022/01/05 05:23:38;;;;;;;0.65;0.30;;;7.90;72.50;;;;;;2369916;53;20906;-75
2022/01/05 05:26:04;;;;;;;2.92;0.40;;;7.80;72.50;;;;;;2356015;53;20997;-74
2022/01/05 05:28:32;;;;;;;0.90;0.40;;;7.80;72.60;;;;;;2354742;53;20953;-74
2022/01/05 05:30:59;;;;;;;0.65;0.40;;;7.80;72.90;;;;;;2495057;52;20929;-74
2022/01/05 05:33:26;;;;;;;1.08;0.40;;;7.80;73.10;;;;;;2365331;53;21004;-75
2022/01/05 05:35:52;;;;;;;0.60;0.30;;;7.80;73.30;;;;;;2361625;53;20953;-75
2022/01/05 05:38:55;;;;;;;0.30;0.20;;;7.80;73.40;;;;;;2345451;53;20957;-75
2022/01/05 05:41:24;;;;;;;0.60;0.30;;;7.80;73.30;;;;;;2367465;53;20924;-75
2022/01/05 05:43:50;;;;;;;1.27;0.40;;;7.70;73.50;;;;;;2352232;53;20981;-75
2022/01/05 05:46:17;;;;;;;0.55;0.40;;;7.80;73.80;;;;;;2465651;52;20989;-75
2022/01/05 05:48:43;;;;;;;1.42;0.50;;;7.80;73.90;;;;;;2469320;52;20898;-75
2022/01/05 05:51:09;;;;;;;0.70;0.40;;;7.80;73.80;;;;;;2368805;53;20914;-75
2022/01/05 05:53:36;;;;;;;0.80;0.47;;;7.80;73.80;;;;;;2350948;53;20957;-74
2022/01/05 05:56:02;;;;;;;0.95;0.43;;;7.80;73.60;;;;;;2359585;53;20915;-74
2022/01/05 05:58:28;;;;;;;1.80;0.70;;;7.80;73.40;;;;;;2348736;53;20921;-75
2022/01/05 06:00:55;;;;;;;1.12;0.55;;;7.80;73.10;;;;;;2360644;53;20977;-74
2022/01/05 06:03:21;;;;;;;0.73;0.40;;;7.70;72.80;;;;;;2388076;53;21066;-74
2022/01/05 06:05:47;;;;;;;3.25;0.60;;;7.70;72.70;;;;;;2343597;53;21516;-75
2022/01/05 06:08:14;;;;;;;2.78;0.65;;;7.70;72.70;;;;;;2368925;53;20972;-74
2022/01/05 06:10:40;;;;;;;1.60;0.60;;;7.60;72.40;;;;;;2374824;53;21426;-75
2022/01/05 06:13:08;;;;;;;4.35;0.80;;;7.60;72.30;;;;;;2411369;52;20937;-75
2022/01/05 06:15:35;;;;;;;1.77;0.70;;;7.50;72.00;;;;;;2361657;53;20912;-74
2022/01/05 06:18:01;;;;;;;1.48;0.50;;;7.50;71.90;;;;;;2373267;52;20953;-74
2022/01/05 06:20:28;;;;;;;1.58;0.60;;;7.40;71.90;;;;;;2349825;53;20948;-75
2022/01/05 06:22:55;;;;;;;1.90;0.70;;;7.40;72.00;;;;;;2364740;52;20984;-74
2022/01/05 06:25:21;;;;;;;1.30;0.60;;;7.30;71.90;;;;;;2529009;52;20985;-74
2022/01/05 06:27:48;;;;;;;3.50;0.80;;;7.30;71.90;;;;;;2370348;53;20893;-74
2022/01/05 06:30:14;;;;;;;2.10;0.80;;;7.20;71.70;;;;;;2370507;54;20950;-74
2022/01/05 06:32:42;;;;;;;2.20;0.82;;;7.20;71.90;;;;;;2373668;53;20877;-74
2022/01/05 06:35:09;;;;;;;2.28;0.80;;;7.10;72.00;;;;;;2382915;53;21460;-74
2022/01/05 06:37:35;;;;;;;2.30;0.90;;;7.10;72.00;;;;;;2359787;53;20914;-74
2022/01/05 06:40:03;;;;;;;1.00;0.50;;;7.10;72.10;;;;;;2508879;52;21350;-74
2022/01/05 06:42:30;;;;;;;2.25;0.77;;;7.00;72.10;;;;;;2362454;53;20942;-75
2022/01/05 06:44:56;;;;;;;2.28;0.85;;;7.00;72.20;;;;;;2442253;52;21058;-74
2022/01/05 06:47:22;;;;;;;2.65;1.00;;;7.00;72.40;;;;;;2347061;54;21285;-75
2022/01/05 06:49:49;;;;;;;2.17;0.65;;;7.00;73.10;;;;;;2370148;53;20997;-74
2022/01/05 06:52:15;;;;;;;1.85;0.70;;;7.00;72.40;;;;;;2391190;52;20933;-74
2022/01/05 06:54:42;;;;;;;2.05;0.70;;;6.90;72.40;;;;;;2350457;53;21060;-75
2022/01/05 06:57:08;;;;;;;1.35;0.43;;;6.90;72.50;;;;;;2436100;52;20897;-74
2022/01/05 06:59:35;;;;;;;0.80;0.47;;;6.90;72.60;;;;;;2364914;52;20992;-74
2022/01/05 07:02:03;;;;;;;1.15;0.50;;;6.90;72.80;;;;;;2358652;52;21418;-74
2022/01/05 07:04:30;;;;;;;2.45;0.55;;;6.90;72.80;;;;;;2581655;52;21824;-75
2022/01/05 07:06:57;;;;;;;1.30;0.50;;;6.90;72.80;;;;;;2355712;53;20957;-74
2022/01/05 07:09:24;;;;;;;1.48;0.57;;;6.90;72.80;;;;;;2589016;52;21423;-75
2022/01/05 07:11:50;;;;;;;1.62;0.70;;;6.90;72.70;;;;;;2350689;53;21027;-74
2022/01/05 07:14:17;;;;;;;1.73;0.62;;;6.90;72.60;;;;;;2351483;53;20933;-75
2022/01/05 07:16:43;;;;;;;2.97;0.73;;;6.90;72.60;;;;;;2357582;53;21232;-75
2022/01/05 07:19:09;;;;;;;2.15;0.57;;;6.90;72.60;;;;;;2383389;52;21528;-75
2022/01/05 07:21:36;;;;;;;1.23;0.52;;;6.80;72.50;;;;;;2426503;53;21836;-74
2022/01/05 07:24:03;;;;;;;1.65;0.50;;;6.80;72.40;;;;;;2414585;52;21001;-74
2022/01/05 07:26:32;;;;;;;1.65;0.68;;;6.80;72.30;;;;;;2333228;54;21073;-74
2022/01/05 07:28:59;;;;;;;2.20;0.90;;;6.80;72.30;;;;;;2361437;53;20955;-75
2022/01/05 07:31:25;;;;;;;2.28;0.62;;;6.80;72.20;;;;;;2579821;52;20928;-74
2022/01/05 07:33:51;;;;;;;2.45;0.68;;;6.80;72.20;;;;;;2382470;53;20922;-74
2022/01/05 07:36:18;;;;;;;2.58;0.65;;;6.80;72.10;;;;;;2590968;52;21033;-74
2022/01/05 07:38:45;;;;;;;2.00;0.60;;;6.80;72.00;;;;;;2341335;53;20973;-74
2022/01/05 07:41:11;;;;;;;1.90;0.80;;;6.80;71.90;;;;;;2357002;53;20962;-75
2022/01/05 07:43:37;;;;;;;2.30;0.75;;;6.70;71.80;;;;;;2343707;53;21001;-74
2022/01/05 07:46:06;;;;;;;3.00;0.80;;;6.70;71.70;;;;;;2410638;52;20976;-75
2022/01/05 07:48:32;;;;;;;4.22;0.82;;;6.70;71.60;;;;;;2369373;53;20985;-75
2022/01/05 07:50:58;;;;;;;3.25;0.70;;;6.70;72.20;;;;;;2348475;54;21015;-74
2022/01/05 07:53:26;;;;;;;2.35;0.70;;;6.60;71.40;;;;;;2336977;54;20920;-74
2022/01/05 07:55:52;;;;;;;2.97;0.85;;;6.60;71.40;;;;;;2333916;54;20994;-74
2022/01/05 07:58:20;;;;;;;3.42;0.85;;;6.60;71.30;;;;;;2444962;53;20983;-75
2022/01/05 08:00:46;;;;;;;2.05;0.73;;;6.60;71.30;;;;;;2354189;53;20917;-75
2022/01/05 08:03:15;;;;;;;1.52;0.70;;;6.50;71.30;;;;;;2378679;53;21514;-74
2022/01/05 08:05:42;;;;;;;4.15;2.10;;;6.50;71.40;;;;;;2341833;54;20929;-74
2022/01/05 08:08:10;;;;;;;3.60;1.20;;;6.50;71.50;;;;;;2342089;53;20932;-74
2022/01/05 08:10:36;;;;;;;4.05;0.98;;;6.50;71.60;;;;;;2345395;53;21041;-74
2022/01/05 08:13:04;;;;;;;4.78;1.50;;;6.50;71.70;;;;;;2335785;53;21464;-74
2022/01/05 08:15:30;;;;;;;2.42;1.00;;;6.50;71.80;;;;;;2339421;54;20950;-75
2022/01/05 08:17:57;;;;;;;2.72;0.93;;;6.50;71.90;;;;;;2365637;53;21011;-74
2022/01/05 08:20:24;;;;;;;3.10;1.30;;;6.40;71.80;;;;;;2345530;53;20903;-74
2022/01/05 08:22:50;;;;;;;2.35;1.00;;;6.40;71.70;;;;;;2344476;54;21001;-75
2022/01/05 08:25:17;;;;;;;2.72;0.95;;;6.40;71.60;;;;;;2461750;53;21041;-75
2022/01/05 08:27:56;;;;;;;;;;;;;;;;;;;;;
2022/01/05 08:30:24;;;;;;;4.03;1.10;;;6.40;71.40;;;;;;2459980;53;21050;-74
2022/01/05 08:32:51;;;;;;;4.12;1.23;;;6.40;71.40;;;;;;2355141;53;21025;-74
2022/01/05 08:35:19;;;;;;;2.87;0.90;;;6.40;71.40;;;;;;2410578;52;21021;-74
2022/01/05 08:37:48;;;;;;;2.47;0.90;;;6.30;71.20;;;;;;2508462;52;21002;-74
2022/01/05 08:40:15;;;;;;;4.87;1.23;;;6.30;71.20;;;;;;2344212;53;22123;-74
2022/01/05 08:42:44;;;;;;;3.12;1.15;;;6.30;71.20;;;;;;2350486;53;20921;-74
2022/01/05 08:45:14;;;;;;;4.68;1.50;;;6.30;71.20;;;;;;2515037;52;20968;-74
2022/01/05 08:47:47;;;;;;;4.93;1.50;;;6.30;71.20;;;;;;2601980;52;20952;-75
2022/01/05 08:50:16;;;;;;;4.37;1.90;;;6.20;71.00;;;;;;2354548;53;20944;-74
2022/01/05 08:52:43;;;;;;;8.45;4.65;;;6.20;71.00;;;;;;2372716;53;20929;-74
2022/01/05 08:55:10;;;;;;;8.02;2.92;;;6.20;71.00;;;;;;2461860;52;20948;-74
2022/01/05 08:57:37;;;;;;;6.87;3.70;;;6.20;71.00;;;;;;2377139;53;20954;-75
2022/01/05 09:00:05;;;;;;;6.87;2.80;;;6.20;71.10;;;;;;2408869;52;21001;-74
2022/01/05 09:02:31;;;;;;;5.45;1.90;;;6.20;71.10;;;;;;2351183;53;20916;-74
2022/01/05 09:04:57;;;;;;;5.80;2.28;;;6.10;71.10;;;;;;2350198;53;21407;-74
2022/01/05 09:07:24;;;;;;;5.32;2.00;;;6.20;71.40;;;;;;2354239;53;20949;-74
2022/01/05 09:09:50;;;;;;;4.62;2.00;;;6.20;71.50;;;;;;2366833;53;20984;-74
2022/01/05 09:12:17;;;;;;;4.47;1.98;;;6.20;71.40;;;;;;2350926;53;20989;-74
2022/01/05 09:14:43;;;;;;;3.95;1.62;;;6.20;71.30;;;;;;2352610;53;20965;-74
2022/01/05 09:17:09;;;;;;;3.28;1.40;;;6.20;71.20;;;;;;2358683;53;20960;-75
2022/01/05 09:19:37;;;;;;;3.90;1.80;;;6.20;70.90;;;;;;2590975;52;20981;-75
2022/01/05 09:22:07;;;;;;;3.45;1.60;;;6.10;70.80;;;;;;2368157;52;21092;-74
2022/01/05 09:24:49;;;;;;;5.15;1.67;;;6.10;70.80;;;;;;2451180;52;21473;-75
2022/01/05 09:27:17;;;;;;;4.32;1.60;;;6.10;71.00;;;;;;2480887;52;22582;-74
2022/01/05 09:29:44;;;;;;;3.72;1.70;;;6.10;71.30;;;;;;2354965;53;20953;-74
2022/01/05 09:32:11;;;;;;;3.37;1.65;;;6.10;71.60;;;;;;2348173;53;20964;-75
2022/01/05 09:34:39;;;;;;;6.35;2.42;;;6.20;71.70;;;;;;2350397;53;21040;-74
2022/01/05 09:37:27;;;;;;;5.15;2.10;;;6.20;71.70;;;;;;2591148;52;20933;-74
2022/01/05 09:42:39;;;;;;;8.95;3.05;;;6.20;71.50;;;;;;2611552;52;20985;-75
2022/01/05 09:45:23;;;;;;;4.93;2.10;;;6.20;71.60;;;;;;2495729;52;20964;-74
2022/01/05 09:48:44;;;;;;;5.82;2.12;;;6.30;71.40;;;;;;2357455;53;22083;-73
2022/01/05 09:51:12;;;;;;;4.90;2.33;;;6.30;71.40;;;;;;2531778;52;21542;-74
2022/01/05 09:53:39;;;;;;;4.90;2.10;;;6.30;72.10;;;;;;2403467;53;21228;-74
2022/01/05 09:56:22;;;;;;;7.12;1.70;;;6.40;72.20;;;;;;2359327;53;21020;-73
2022/01/05 09:58:49;;;;;;;6.90;2.10;;;6.40;72.30;;;;;;2429632;52;21048;-74
2022/01/05 10:01:15;;;;;;;6.05;2.35;;;6.40;72.60;;;;;;2348349;53;21031;-73
2022/01/05 10:03:41;;;;;;;4.53;1.92;;;6.50;72.80;;;;;;2347910;53;21513;-74
2022/01/05 10:06:12;;;;;;;5.95;1.73;;;6.60;72.90;;;;;;2353700;53;20984;-74
2022/01/05 10:08:38;;;;;;;6.20;1.70;;;6.60;73.10;;;;;;2589868;52;21523;-74
2022/01/05 10:11:06;;;;;;;8.07;1.85;;;6.70;73.20;;;;;;2354122;53;21489;-74
2022/01/05 10:13:33;;;;;;;4.00;1.40;;;6.80;73.30;;;;;;2343581;53;20985;-74
2022/01/05 10:16:01;;;;;;;3.60;1.42;;;6.80;73.20;;;;;;2359881;53;21035;-74
2022/01/05 10:18:38;;;;;;;7.75;1.77;;;6.90;73.30;;;;;;2340066;53;20996;-75
2022/01/05 10:21:06;;;;;;;5.50;1.40;;;6.90;72.60;;;;;;2347356;53;21069;-74
2022/01/05 10:24:17;;;;;;;4.68;1.37;;;7.00;72.90;;;;;;2450963;52;20969;-74
2022/01/05 10:26:43;;;;;;;5.35;2.00;;;7.00;72.30;;;;;;2395762;52;20953;-74
2022/01/05 10:29:22;;;;;;;4.32;1.85;;;7.10;72.50;;;;;;2600006;52;21825;-74
2022/01/05 10:31:55;;;;;;;6.93;1.90;;;7.10;71.80;;;;;;2357890;53;21587;-74
2022/01/05 10:34:27;;;;;;;8.07;3.05;;;7.10;72.10;;;;;;2347647;53;20964;-74
2022/01/05 10:36:57;;;;;;;11.30;2.72;;;7.10;72.20;;;;;;2419082;52;20949;-74
2022/01/05 10:39:39;;;;;;;7.80;2.90;;;7.20;72.30;;;;;;2541504;52;20977;-74
2022/01/05 10:42:07;;;;;;;8.23;3.03;;;7.20;71.60;;;;;;2351840;53;20941;-74
2022/01/05 10:44:33;;;;;;;7.40;2.62;;;7.20;71.90;;;;;;2347244;53;22256;-74
2022/01/05 10:47:02;;;;;;;5.07;1.70;;;7.20;72.00;;;;;;2352612;53;21025;-74
2022/01/05 10:49:37;;;;;;;6.22;2.28;;;7.30;72.00;;;;;;2377874;52;21032;-74
2022/01/05 10:52:32;;;;;;;4.35;1.87;;;7.30;71.90;;;;;;2341359;53;20953;-74
2022/01/05 10:55:15;;;;;;;4.37;1.98;;;7.30;71.30;;;;;;2314951;53;21177;-74
2022/01/05 10:58:04;;;;;;;6.35;2.00;;;7.40;72.20;;;;;;2413205;53;21058;-74
2022/01/05 11:00:41;;;;;;;7.30;1.50;;;7.50;74.10;;;;;;2341875;53;21031;-74
2022/01/05 11:03:35;;;;;;;5.03;1.55;;;7.70;75.60;;;;;;2396828;52;20971;-74
2022/01/05 11:06:03;;;;;;;6.62;2.10;;;7.90;75.00;;;;;;2331904;53;20953;-74
2022/01/05 11:08:46;;;;;;;9.25;1.85;;;8.10;75.00;;;;;;2338464;53;20970;-74
2022/01/05 11:11:41;;;;;;;4.75;1.70;;;8.20;73.90;;;;;;2341457;53;20991;-75
2022/01/05 11:14:12;;;;;;;5.20;1.23;;;8.30;73.40;;;;;;2402928;53;21980;-74
2022/01/05 11:16:42;;;;;;;4.82;1.70;;;8.40;74.10;;;;;;2478706;53;21303;-74
2022/01/05 11:22:41;;;;;;;4.82;1.70;;;8.50;73.70;;;;;;2328429;53;21467;-74
2022/01/05 11:25:08;;;;;;;6.68;1.62;;;8.60;71.40;;;;;;2511100;52;21786;-74
2022/01/05 11:27:35;;;;;;;6.05;1.70;;;8.60;72.10;;;;;;2349586;53;21739;-74
2022/01/05 11:30:03;;;;;;;6.12;2.35;;;8.50;71.50;;;;;;2511737;52;21856;-74
2022/01/05 11:32:31;;;;;;;6.03;1.37;;;8.50;71.50;;;;;;2329544;53;20964;-74
2022/01/05 11:34:59;;;;;;;11.10;2.87;;;8.40;71.30;;;;;;2324045;54;21033;-74
2022/01/05 11:37:25;;;;;;;7.00;2.30;;;8.40;71.10;;;;;;2324432;53;21039;-74
2022/01/05 11:39:52;;;;;;;7.60;2.45;;;8.30;71.10;;;;;;2346139;53;20927;-74
2022/01/05 11:42:27;;;;;;;8.90;2.20;;;8.30;70.90;;;;;;2333233;53;21066;-74
2022/01/05 11:44:57;;;;;;;8.82;2.05;;;8.30;70.60;;;;;;2423457;53;20960;-75
2022/01/05 11:47:30;;;;;;;7.40;1.73;;;8.20;70.90;;;;;;2360262;53;21383;-74
2022/01/05 11:50:24;;;;;;;14.98;4.62;;;8.20;70.20;;;;;;2351152;52;20958;-75
2022/01/05 11:53:06;;;;;;;8.70;2.30;;;8.20;69.70;;;;;;2472755;52;20967;-74
2022/01/05 11:55:56;;;;;;;3.83;1.42;;;8.10;70.50;;;;;;2340996;53;20937;-75
2022/01/05 11:58:26;;;;;;;5.25;1.67;;;8.10;71.00;;;;;;2601230;52;20999;-74
2022/01/05 12:01:44;;;;;;;5.03;1.60;;;8.10;71.10;;;;;;2474790;52;21034;-75
2022/01/05 12:04:11;;;;;;;5.78;1.35;;;8.10;70.60;;;;;;2392491;52;21459;-74
2022/01/05 12:07:45;;;;;;;3.60;1.37;;;8.10;71.80;;;;;;2354290;53;22218;-74
2022/01/05 12:10:24;;;;;;;11.52;1.42;;;8.10;70.30;;;;;;2384780;52;21003;-74
2022/01/05 12:12:58;;;;;;;5.30;1.42;;;8.20;72.00;;;;;;2357252;53;20945;-74
2022/01/05 12:15:59;;;;;;;6.30;1.67;;;8.20;71.80;;;;;;2371588;52;20977;-74
2022/01/05 12:18:28;;;;;;;3.90;1.23;;;8.30;71.00;;;;;;2580124;52;20940;-74
2022/01/05 12:20:55;;;;;;;9.43;1.90;;;8.30;72.10;;;;;;2346404;53;20978;-74
2022/01/05 12:23:28;;;;;;;8.18;2.20;;;8.30;72.10;;;;;;2381989;53;20922;-74
2022/01/05 12:27:13;;;;;;;6.50;2.30;;;8.40;71.60;;;;;;2351193;53;21589;-74
2022/01/05 12:29:39;;;;;;;7.68;1.77;;;8.40;70.10;;;;;;2557750;52;21358;-74
2022/01/05 12:32:07;;;;;;;5.03;1.37;;;8.40;71.30;;;;;;2441760;52;21597;-74
2022/01/05 12:35:33;;;;;;;3.53;1.12;;;8.30;71.00;;;;;;2348335;53;20965;-74
2022/01/05 12:38:06;;;;;;;4.25;1.77;;;8.30;70.10;;;;;;2428498;53;21008;-74
2022/01/05 12:40:42;;;;;;;5.10;1.70;;;8.30;70.80;;;;;;2394896;52;21133;-74
2022/01/05 12:43:34;;;;;;;3.25;1.48;;;8.30;70.50;;;;;;2289197;54;21862;-74
2022/01/05 12:46:11;;;;;;;7.90;2.17;;;8.30;69.70;;;;;;2485008;53;20927;-74
2022/01/05 12:48:58;;;;;;;11.60;2.97;;;8.30;70.50;;;;;;2327595;53;20951;-75
2022/01/05 12:51:44;;;;;;;10.20;2.92;;;8.30;70.00;;;;;;2380530;53;20956;-74
2022/01/05 12:54:18;;;;;;;6.18;1.90;;;8.30;70.50;;;;;;2314373;53;20947;-74
2022/01/05 12:56:55;;;;;;;5.60;1.70;;;8.20;70.50;;;;;;2442533;52;20959;-74
2022/01/05 12:59:30;;;;;;;5.30;1.55;;;8.20;70.30;;;;;;2313113;53;21022;-74
2022/01/05 13:02:04;;;;;;;5.25;1.42;;;8.20;70.50;;;;;;2444894;53;21006;-74
2022/01/05 13:04:30;;;;;;;9.48;2.55;;;8.20;70.80;;;;;;2353856;53;20930;-74
2022/01/05 13:06:59;;;;;;;6.55;2.37;;;8.30;71.40;;;;;;2343666;53;21005;-74
2022/01/05 13:09:30;;;;;;;5.68;2.40;;;8.30;71.20;;;;;;2333738;53;21447;-74
2022/01/05 13:12:31;;;;;;;6.30;2.00;;;8.30;71.20;;;;;;2338054;53;20982;-74
2022/01/05 13:14:59;;;;;;;4.72;1.50;;;8.30;70.40;;;;;;2352199;53;21234;-74
2022/01/05 13:17:31;;;;;;;4.95;1.30;;;8.40;72.30;;;;;;2331322;53;20984;-74
2022/01/05 13:20:03;;;;;;;6.22;1.42;;;8.50;73.30;;;;;;2564543;53;21450;-74
2022/01/05 13:22:37;;;;;;;3.90;1.30;;;8.60;73.20;;;;;;2324799;54;20991;-73